Startpagina
METAR-TAF:

METAR-TAF

Vliegvelden :

Aéroport de Biarritz-Anglet-Bayonne

Biarritz, Frankrijk

breedte: 43-28N, lengte: 001-32W, hoogte: 75 m

Actueel weer

Dit bericht is 25 minuten geleden gemaakt, om 13:00 UTC
Wind 9 kt uit het noordnoordwesten, variërend tussen het noordwesten en het noorden
Temperatuur 21°C
Vochtigheid 43%
Druk 1019 hPa
Zicht 10 km of meer
geen wolken onder 1500 m en geen cumulonimbus

METAR: LFBZ 101300Z AUTO 34009KT 310V010 CAVOK 21/08 Q1019

Tijdstip: 15:25 (13:25 UTC)


TAF: ontbreekt

Waarnemingen en weersverwachtingen van meer dan 4000 vliegvelden (METAR en TAF).

De beschikbare stations zijn de gele en rode punten op de kaart.

Ga met uw muis naar het station om de naam te zien.

Klik dan om waarnemingen en weersverwachtingen te zien.

kaart wijzigen: klik op de groene knoppen met een zwart kruis om in te zoomen, op de groene knop met een streepje om uit te zoomen of op de groene pijlen voor aangrenzende kaarten.


METAR-TAF: